Lackland Air Force Base (Kelly Field Annex) Airport
KSKF : now visible

Airfield :











YOU CAN JOIN US ON...

 
LOGIN :

Register | Disclaimer

   EN    FR    IT 

 









Legend :    VFR   Marginal VFR   IFR   Intensive IFR   Very Intensive IFR
Visi :
Ceiling :
>= 8 km
>= 3000ft
5 to 8 km
1000 to 3000 ft
1500m to 5 km
500 to 1000 ft
800 to 1500m
200 to 500 ft
< 800m
< 200 ft
Symbols :   Thunderstorms  Fog  Heavy snow  Heavy precipitations  Wind > 20 kt






- Airport Elevation : 691 ft


KSKF - Lackland Air Force Base (Kelly Field Annex)

CURRENT METAR :
  • 282255Z AUTO 03015G25KT 10SM FEW190 15/M03 A3019 RMK AO2 SLP221 T01481035

EXPIRED METARs :
  • 282155Z AUTO 03015KT 10SM FEW200 16/M04 A3017 RMK AO2 PK WND 03028/21 SLP214 T01571038
  • 282055Z AUTO 03017G24KT 10SM FEW200 17/M03 A3016 RMK AO2 PK WND 04030/09 SLP210 T01671034 53003
  • 281955Z AUTO 03014G25KT 10SM CLR 17/M02 A3016 RMK AO2 PK WND 02031/1857 SLP210 T01721025
  • 281855Z AUTO 04017G25KT 10SM FEW180 16/M02 A3015 RMK AO2 PK WND 02031/50 SLP207 T01601025

TAF TAF KSKF
Valid from the 28 at 18:00 until the 01 at 00:00 UTC


281800Z 2818/2924 02015G25KT 9999 SCT190 510053 QNH3011INS
TEMPO 2818/2820 04025G35KT
BECMG 2902/2903 03012KT 9999 SCT080 QNH3019INS
BECMG 2914/2915 04009KT 9999 BKN030 QNH3018INS TX17/2818Z TN09/2912Z
KZHU FIR / North America



MET'MAP, your aeronautical weather chart ! - Copyright ORBIFLY December 2007 - Disclaimer

ORBIFLY MET'MAP TEAM :

Programming & Development : Alexandra Zaïnal
Original concept : Baudouin d'Aumeries
Technical & hardware support : Manuel Goepfert
Assistance : Marc-Olivier Méhu




SOURCES & CREDITS :

   NOAA       Earth
Advisory